createdAt,value
2022-09-28T00:00:13.348Z,94.14
2022-09-28T00:01:13.261Z,94.14
2022-09-28T00:02:13.349Z,93.93
2022-09-28T00:03:13.323Z,93.63
2022-09-28T00:04:13.287Z,94.04
2022-09-28T00:05:13.226Z,93.73
2022-09-28T00:06:13.216Z,93.73
2022-09-28T00:07:13.210Z,93.69
2022-09-28T00:08:13.178Z,93.63
2022-09-28T00:09:13.308Z,93.28
2022-09-28T00:10:13.177Z,92.77
2022-09-28T00:11:13.156Z,92.97
2022-09-28T00:12:13.165Z,92.36
2022-09-28T00:13:13.158Z,92.16
2022-09-28T00:14:13.181Z,92.57
2022-09-28T00:15:13.108Z,92.36
2022-09-28T00:16:13.136Z,92.26
2022-09-28T00:17:13.092Z,92.87
2022-09-28T00:18:13.107Z,92.97
2022-09-28T00:19:13.139Z,92.46
2022-09-28T00:20:13.058Z,92.05
2022-09-28T00:21:13.040Z,92.36
2022-09-28T00:22:13.037Z,92.05
2022-09-28T00:23:13.017Z,92.46
2022-09-28T00:24:13.053Z,92.67
2022-09-28T00:25:13.017Z,91.55
2022-09-28T00:26:12.989Z,91.50
2022-09-28T00:27:12.998Z,91.75
2022-09-28T00:28:12.986Z,91.71
2022-09-28T00:29:13.003Z,92.42
2022-09-28T00:30:12.962Z,92.57
2022-09-28T00:31:13.056Z,92.46
2022-09-28T00:32:12.915Z,93.07
2022-09-28T00:33:12.914Z,92.46
2022-09-28T00:34:12.956Z,91.24
2022-09-28T00:35:12.902Z,92.32
2022-09-28T00:36:12.877Z,91.40
2022-09-28T00:37:12.877Z,91.44
2022-09-28T00:38:12.892Z,91.35
2022-09-28T00:39:12.927Z,91.71
2022-09-28T00:40:12.852Z,90.79
2022-09-28T00:41:12.864Z,91.20
2022-09-28T00:42:12.808Z,91.44
2022-09-28T00:43:12.820Z,91.61
2022-09-28T00:44:12.857Z,92.22
2022-09-28T00:45:12.802Z,92.52
2022-09-28T00:46:12.835Z,91.81
2022-09-28T00:47:12.792Z,91.65
2022-09-28T00:48:12.746Z,91.20
2022-09-28T00:49:12.780Z,90.99
2022-09-28T00:50:12.736Z,90.79
2022-09-28T00:51:12.774Z,90.79
2022-09-28T00:52:12.706Z,90.79
2022-09-28T00:53:12.702Z,90.69
2022-09-28T00:54:12.713Z,91.09
2022-09-28T00:55:12.688Z,91.91
2022-09-28T00:56:12.681Z,91.50
2022-09-28T00:57:12.699Z,91.61
2022-09-28T00:58:12.663Z,91.71
2022-09-28T00:59:12.730Z,91.71
2022-09-28T01:00:12.622Z,91.61
2022-09-28T01:01:12.694Z,91.71
2022-09-28T01:02:12.668Z,91.85
2022-09-28T01:03:12.658Z,91.55
2022-09-28T01:04:12.620Z,92.32
2022-09-28T01:05:12.617Z,91.85
2022-09-28T01:06:12.596Z,91.65
2022-09-28T01:07:12.582Z,92.32
2022-09-28T01:08:12.543Z,91.55
2022-09-28T01:09:12.578Z,91.35
2022-09-28T01:10:12.501Z,91.65
2022-09-28T01:11:12.578Z,91.65
2022-09-28T01:12:12.509Z,91.65
2022-09-28T01:13:12.493Z,91.03
2022-09-28T01:14:12.478Z,90.89
2022-09-28T01:15:12.513Z,91.20
2022-09-28T01:16:12.515Z,91.55
2022-09-28T01:17:12.481Z,91.44
2022-09-28T01:18:12.420Z,92.42
2022-09-28T01:19:12.451Z,92.46
2022-09-28T01:20:12.418Z,91.96
2022-09-28T01:21:12.452Z,91.55
2022-09-28T01:22:12.389Z,91.75
2022-09-28T01:23:12.369Z,91.65
2022-09-28T01:24:12.408Z,91.44
2022-09-28T01:25:12.364Z,91.96
2022-09-28T01:26:12.344Z,91.35
2022-09-28T01:27:12.336Z,91.44
2022-09-28T01:28:12.305Z,91.09
2022-09-28T01:29:12.374Z,91.61
2022-09-28T01:30:12.312Z,91.65
2022-09-28T01:31:12.392Z,92.46
2022-09-28T01:32:12.259Z,91.44
2022-09-28T01:33:12.285Z,91.55
2022-09-28T01:34:12.264Z,91.35
2022-09-28T01:35:12.242Z,91.09
2022-09-28T01:36:12.223Z,92.36
2022-09-28T01:37:12.230Z,92.26
2022-09-28T01:38:12.197Z,91.65
2022-09-28T01:39:12.255Z,92.77
2022-09-28T01:40:12.179Z,92.36
2022-09-28T01:41:12.192Z,92.57
2022-09-28T01:42:12.161Z,92.67
2022-09-28T01:43:12.165Z,91.75
2022-09-28T01:44:12.157Z,91.75
2022-09-28T01:45:12.158Z,91.44
2022-09-28T01:46:12.248Z,91.65
2022-09-28T01:47:12.142Z,91.65
2022-09-28T01:48:12.112Z,91.65
2022-09-28T01:49:12.149Z,92.77
2022-09-28T01:50:12.068Z,92.36
2022-09-28T01:51:12.059Z,91.65
2022-09-28T01:52:12.068Z,92.26
2022-09-28T01:53:12.059Z,93.18
2022-09-28T01:54:12.028Z,92.91
2022-09-28T01:55:12.016Z,92.20
2022-09-28T01:56:12.019Z,92.16
2022-09-28T01:57:12.026Z,92.50
2022-09-28T01:58:11.987Z,92.41
2022-09-28T01:59:12.005Z,92.61
2022-09-28T02:00:11.965Z,93.52
2022-09-28T02:01:12.013Z,92.71
2022-09-28T02:02:11.999Z,93.22
2022-09-28T02:03:11.957Z,94.04
2022-09-28T02:04:11.958Z,93.63
2022-09-28T02:05:11.909Z,93.37
2022-09-28T02:06:11.893Z,93.63
2022-09-28T02:07:11.975Z,93.98
2022-09-28T02:08:11.891Z,93.47
2022-09-28T02:09:11.875Z,93.77
2022-09-28T02:10:11.875Z,93.98
2022-09-28T02:11:11.845Z,94.49
2022-09-28T02:12:11.840Z,94.70
2022-09-28T02:13:11.874Z,94.90
2022-09-28T02:14:11.822Z,95.31
2022-09-28T02:15:11.822Z,94.53
2022-09-28T02:16:11.853Z,96.17
2022-09-28T02:17:11.799Z,96.27
2022-09-28T02:18:11.768Z,96.27
2022-09-28T02:19:11.775Z,96.06
2022-09-28T02:20:11.755Z,96.51
2022-09-28T02:21:11.742Z,96.51
2022-09-28T02:22:11.723Z,96.42
2022-09-28T02:23:11.743Z,96.21
2022-09-28T02:24:11.707Z,96.42
2022-09-28T02:25:11.698Z,97.24
2022-09-28T02:26:11.715Z,97.24
2022-09-28T02:27:11.671Z,97.24
2022-09-28T02:28:11.694Z,97.24
2022-09-28T02:29:11.723Z,97.64
2022-09-28T02:30:11.651Z,97.03
2022-09-28T02:31:11.719Z,97.33
2022-09-28T02:32:11.654Z,96.83
2022-09-28T02:33:11.622Z,97.24
2022-09-28T02:34:11.622Z,96.51
2022-09-28T02:35:11.611Z,97.03
2022-09-28T02:36:11.604Z,96.62
2022-09-28T02:37:11.552Z,96.42
2022-09-28T02:38:11.581Z,96.72
2022-09-28T02:39:11.618Z,97.33
2022-09-28T02:40:11.574Z,96.11
2022-09-28T02:41:11.506Z,96.11
2022-09-28T02:42:11.500Z,97.03
2022-09-28T02:43:11.490Z,97.54
2022-09-28T02:44:11.513Z,97.33
2022-09-28T02:45:11.489Z,97.24
2022-09-28T02:46:11.549Z,96.72
2022-09-28T02:47:11.443Z,97.54
2022-09-28T02:48:11.442Z,98.25
2022-09-28T02:49:21.276Z,98.61
2022-09-28T02:50:12.456Z,97.85
2022-09-28T02:51:11.396Z,98.97
2022-09-28T02:52:11.404Z,99.02
2022-09-28T02:53:11.391Z,98.10
2022-09-28T02:54:13.445Z,98.71
2022-09-28T02:55:12.378Z,98.91
2022-09-28T02:56:11.876Z,98.71
2022-09-28T02:57:11.336Z,98.81
2022-09-28T02:58:11.331Z,98.77
2022-09-28T02:59:11.337Z,98.77
2022-09-28T03:00:11.372Z,98.91
2022-09-28T03:01:11.362Z,98.86
2022-09-28T03:02:11.316Z,98.46
2022-09-28T03:03:11.281Z,99.32
2022-09-28T03:04:11.336Z,99.38
2022-09-28T03:05:11.278Z,99.32
2022-09-28T03:06:11.258Z,98.66
2022-09-28T03:07:11.253Z,99.27
2022-09-28T03:08:11.259Z,99.48
2022-09-28T03:09:11.234Z,99.27
2022-09-28T03:10:11.247Z,99.73
2022-09-28T03:11:11.185Z,99.38
2022-09-28T03:12:11.184Z,98.91
2022-09-28T03:13:11.190Z,99.27
2022-09-28T03:14:11.191Z,98.77
2022-09-28T03:15:11.167Z,98.56
2022-09-28T03:16:11.215Z,98.86
2022-09-28T03:17:11.136Z,98.56
2022-09-28T03:18:11.169Z,98.71
2022-09-28T03:19:11.094Z,97.99
2022-09-28T03:20:11.101Z,97.54
2022-09-28T03:21:11.096Z,98.25
2022-09-28T03:22:11.126Z,97.74
2022-09-28T03:23:26.374Z,97.85
2022-09-28T03:24:12.091Z,97.85
2022-09-28T03:25:11.032Z,97.39
2022-09-28T03:26:11.052Z,97.29
2022-09-28T03:27:11.009Z,97.19
2022-09-28T03:28:11.081Z,97.08
2022-09-28T03:29:11.057Z,97.08
2022-09-28T03:30:10.984Z,97.19
2022-09-28T03:31:11.041Z,96.27
2022-09-28T03:32:10.972Z,96.43
2022-09-28T03:33:10.986Z,96.22
2022-09-28T03:34:10.961Z,96.12
2022-09-28T03:35:10.923Z,96.02
2022-09-28T03:36:10.970Z,95.92
2022-09-28T03:37:10.925Z,96.22
2022-09-28T03:38:10.907Z,96.12
2022-09-28T03:39:11.057Z,96.22
2022-09-28T03:40:10.891Z,96.43
2022-09-28T03:41:10.854Z,95.87
2022-09-28T03:42:10.870Z,95.41
2022-09-28T03:43:10.907Z,94.95
2022-09-28T03:44:10.853Z,94.75
2022-09-28T03:45:10.825Z,95.47
2022-09-28T03:46:10.853Z,95.26
2022-09-28T03:47:10.829Z,95.06
2022-09-28T03:48:10.807Z,96.08
2022-09-28T03:49:10.920Z,96.02
2022-09-28T03:50:10.853Z,96.53
2022-09-28T03:51:10.749Z,96.12
2022-09-28T03:52:10.750Z,97.24
2022-09-28T03:53:10.768Z,97.14
2022-09-28T03:54:10.787Z,97.04
2022-09-28T03:55:10.701Z,97.65
2022-09-28T03:56:10.744Z,96.73
2022-09-28T03:57:10.700Z,96.84
2022-09-28T03:58:10.696Z,97.04
2022-09-28T03:59:10.748Z,97.14
2022-09-28T04:00:10.669Z,97.14
2022-09-28T04:01:14.190Z,97.24
2022-09-28T04:02:11.717Z,97.14
2022-09-28T04:03:10.720Z,97.14
2022-09-28T04:04:10.625Z,97.24
2022-09-28T04:05:10.626Z,97.04
2022-09-28T04:06:10.584Z,97.14
2022-09-28T04:07:10.577Z,97.34
2022-09-28T04:08:10.582Z,97.45
2022-09-28T04:09:10.671Z,97.14
2022-09-28T04:10:10.540Z,97.45
2022-09-28T04:11:10.530Z,97.55
2022-09-28T04:12:10.525Z,98.00
2022-09-28T04:13:10.556Z,97.96
2022-09-28T04:14:10.520Z,98.11
2022-09-28T04:15:10.502Z,98.27
2022-09-28T04:16:10.755Z,98.52
2022-09-28T04:17:10.479Z,98.68
2022-09-28T04:18:10.455Z,98.93
2022-09-28T04:19:10.554Z,98.88
2022-09-28T04:20:10.440Z,99.84
2022-09-28T04:21:10.478Z,99.33
2022-09-28T04:22:10.428Z,99.43
2022-09-28T04:23:10.453Z,99.99
2022-09-28T04:24:10.412Z,99.99
2022-09-28T04:25:10.419Z,99.99
2022-09-28T04:26:10.375Z,99.99
2022-09-28T04:27:10.426Z,99.99
2022-09-28T04:28:10.344Z,99.99
2022-09-28T04:29:10.389Z,99.99
2022-09-28T04:30:10.343Z,99.99
2022-09-28T04:31:10.337Z,99.95
2022-09-28T04:32:10.318Z,99.99
2022-09-28T04:33:10.302Z,99.99
2022-09-28T04:34:10.297Z,99.99
2022-09-28T04:35:10.292Z,99.99
2022-09-28T04:36:10.252Z,99.99
2022-09-28T04:37:10.243Z,99.99
2022-09-28T04:38:10.237Z,99.99
2022-09-28T04:39:10.338Z,99.99
2022-09-28T04:40:10.221Z,99.99
2022-09-28T04:41:10.222Z,99.99
2022-09-28T04:42:10.223Z,99.99
2022-09-28T04:43:10.259Z,99.99
2022-09-28T04:44:10.216Z,99.99
2022-09-28T04:45:10.156Z,99.99
2022-09-28T04:46:10.243Z,99.99
2022-09-28T04:47:10.314Z,99.99
2022-09-28T04:48:10.133Z,99.99
2022-09-28T04:49:10.231Z,99.99
2022-09-28T04:50:10.111Z,99.99
2022-09-28T04:51:10.117Z,99.99
2022-09-28T04:52:13.533Z,99.99
2022-09-28T04:53:11.148Z,99.99
2022-09-28T04:54:10.095Z,99.99
2022-09-28T04:55:10.047Z,99.99
2022-09-28T04:56:10.042Z,99.99
2022-09-28T04:57:10.141Z,99.99
2022-09-28T04:58:10.029Z,99.99
2022-09-28T04:59:10.139Z,99.99
2022-09-28T05:00:10.020Z,99.99
2022-09-28T05:01:10.030Z,99.90
2022-09-28T05:02:10.007Z,99.99
2022-09-28T05:03:10.012Z,99.99
2022-09-28T05:04:09.971Z,99.99
2022-09-28T05:05:09.990Z,99.99
2022-09-28T05:06:09.926Z,99.90
2022-09-28T05:07:09.959Z,99.99
2022-09-28T05:08:09.913Z,99.99
2022-09-28T05:09:09.913Z,99.99
2022-09-28T05:10:09.945Z,99.99
2022-09-28T05:11:09.893Z,99.99
2022-09-28T05:12:09.891Z,99.99
2022-09-28T05:13:09.873Z,99.99
2022-09-28T05:14:09.857Z,99.99
2022-09-28T05:15:09.921Z,99.99
2022-09-28T05:16:09.891Z,99.99
2022-09-28T05:17:09.828Z,99.99
2022-09-28T05:18:09.841Z,99.99
2022-09-28T05:19:09.830Z,99.99
2022-09-28T05:20:09.807Z,99.99
2022-09-28T05:21:09.822Z,99.99
2022-09-28T05:22:09.759Z,99.99
2022-09-28T05:23:09.746Z,99.99
2022-09-28T05:24:09.758Z,99.99
2022-09-28T05:25:09.713Z,99.99
2022-09-28T05:26:09.728Z,99.99
2022-09-28T05:27:09.865Z,99.99
2022-09-28T05:28:09.732Z,99.99
2022-09-28T05:29:09.753Z,99.99
2022-09-28T05:30:09.696Z,99.99
2022-09-28T05:31:09.649Z,99.99
2022-09-28T05:32:09.736Z,99.99
2022-09-28T05:33:09.672Z,99.99
2022-09-28T05:34:09.653Z,99.99
2022-09-28T05:35:09.728Z,99.99
2022-09-28T05:36:09.659Z,99.99
2022-09-28T05:37:09.611Z,99.99
2022-09-28T05:38:09.592Z,99.99
2022-09-28T05:39:09.646Z,99.99
2022-09-28T05:40:09.591Z,99.99
2022-09-28T05:41:09.617Z,99.99
2022-09-28T05:42:09.535Z,99.99
2022-09-28T05:43:09.594Z,99.99
2022-09-28T05:44:09.587Z,99.99
2022-09-28T05:45:09.536Z,99.99
2022-09-28T05:46:09.552Z,99.99
2022-09-28T05:47:09.513Z,99.99
2022-09-28T05:48:09.525Z,99.99
2022-09-28T05:49:09.501Z,99.99
2022-09-28T05:50:09.497Z,99.99
2022-09-28T05:51:09.433Z,99.99
2022-09-28T05:52:09.474Z,99.99
2022-09-28T05:53:09.425Z,99.99
2022-09-28T05:54:09.399Z,99.99
2022-09-28T05:55:09.413Z,99.99
2022-09-28T05:56:09.415Z,99.99
2022-09-28T05:57:09.375Z,99.99
2022-09-28T05:58:09.438Z,99.99
2022-09-28T05:59:09.367Z,99.99
2022-09-28T06:00:09.336Z,99.99
2022-09-28T06:01:09.373Z,99.99
2022-09-28T06:02:09.450Z,99.99
2022-09-28T06:03:09.685Z,99.99
2022-09-28T06:04:09.364Z,99.99
2022-09-28T06:05:09.326Z,99.99
2022-09-28T06:06:09.361Z,99.99
2022-09-28T06:07:09.319Z,99.99
2022-09-28T06:08:09.296Z,99.99
2022-09-28T06:09:09.267Z,99.99
2022-09-28T06:10:09.227Z,99.99
2022-09-28T06:11:09.243Z,99.99
2022-09-28T06:12:09.278Z,99.99
2022-09-28T06:13:09.210Z,99.99
2022-09-28T06:14:09.224Z,99.99
2022-09-28T06:15:09.179Z,99.99
2022-09-28T06:16:09.219Z,99.99
2022-09-28T06:17:09.336Z,99.99
2022-09-28T06:18:09.148Z,99.99
2022-09-28T06:19:09.438Z,99.99
2022-09-28T06:20:09.158Z,99.99
2022-09-28T06:21:09.114Z,99.99
2022-09-28T06:22:09.096Z,99.99
2022-09-28T06:23:09.084Z,99.99
2022-09-28T06:24:09.126Z,99.99
2022-09-28T06:25:09.113Z,99.99
2022-09-28T06:26:09.098Z,99.99
2022-09-28T06:27:09.094Z,99.99
2022-09-28T06:28:09.048Z,99.99
2022-09-28T06:29:09.030Z,99.99
2022-09-28T06:30:09.013Z,99.99
2022-09-28T06:31:09.093Z,99.99
2022-09-28T06:32:09.026Z,99.99
2022-09-28T06:33:08.999Z,99.99
2022-09-28T06:34:08.986Z,99.99
2022-09-28T06:35:08.984Z,99.99
2022-09-28T06:36:08.940Z,99.99
2022-09-28T06:37:08.931Z,99.99
2022-09-28T06:38:08.977Z,99.99
2022-09-28T06:39:08.906Z,99.99
2022-09-28T06:40:08.907Z,99.99
2022-09-28T06:41:08.899Z,99.99
2022-09-28T06:42:08.876Z,99.99
2022-09-28T06:43:08.869Z,99.99
2022-09-28T06:44:08.878Z,99.99
2022-09-28T06:45:08.864Z,99.99
2022-09-28T06:46:08.885Z,99.99
2022-09-28T06:47:08.823Z,99.99
2022-09-28T06:48:08.821Z,99.99
2022-09-28T06:49:08.843Z,99.99
2022-09-28T06:50:08.796Z,99.99
2022-09-28T06:51:08.837Z,99.99
2022-09-28T06:52:08.811Z,99.99
2022-09-28T06:53:08.758Z,99.99
2022-09-28T06:54:08.741Z,99.99
2022-09-28T06:55:08.750Z,99.99
2022-09-28T06:56:08.747Z,99.99
2022-09-28T06:57:08.732Z,99.99
2022-09-28T06:58:08.707Z,99.99
2022-09-28T06:59:08.693Z,99.99
2022-09-28T07:00:08.678Z,99.99
2022-09-28T07:01:08.797Z,99.99
2022-09-28T07:02:08.683Z,99.99
2022-09-28T07:03:08.648Z,99.99
2022-09-28T07:04:08.718Z,99.99
2022-09-28T07:05:08.644Z,99.99
2022-09-28T07:06:08.712Z,99.99
2022-09-28T07:07:08.602Z,99.99
2022-09-28T07:08:08.611Z,99.99
2022-09-28T07:09:24.216Z,99.99
2022-09-28T07:10:09.586Z,99.99
2022-09-28T07:11:08.635Z,99.99
2022-09-28T07:12:08.544Z,99.99
2022-09-28T07:13:14.994Z,99.99
2022-09-28T07:14:13.002Z,99.99
2022-09-28T07:15:09.519Z,99.99
2022-09-28T07:16:08.570Z,99.99
2022-09-28T07:17:13.591Z,99.99
2022-09-28T07:18:09.578Z,99.99
2022-09-28T07:19:08.530Z,99.99
2022-09-28T07:20:18.428Z,99.99
2022-09-28T07:21:19.215Z,99.99
2022-09-28T07:22:09.468Z,99.99
2022-09-28T07:23:18.466Z,99.99
2022-09-28T07:24:09.449Z,99.99
2022-09-28T07:25:08.512Z,99.99
2022-09-28T07:26:09.316Z,99.99
2022-09-28T07:27:08.413Z,99.99
2022-09-28T07:28:08.387Z,99.99
2022-09-28T07:29:08.482Z,99.99
2022-09-28T07:30:08.390Z,99.99
2022-09-28T07:31:08.399Z,99.99
2022-09-28T07:32:08.330Z,99.99
2022-09-28T07:33:08.327Z,99.99
2022-09-28T07:34:08.351Z,99.99
2022-09-28T07:35:08.311Z,99.99
2022-09-28T07:36:08.440Z,99.99
2022-09-28T07:37:08.341Z,99.99
2022-09-28T07:38:08.318Z,99.99
2022-09-28T07:39:08.295Z,99.99
2022-09-28T07:40:08.286Z,99.99
2022-09-28T07:41:08.388Z,99.99
2022-09-28T07:42:08.260Z,99.99
2022-09-28T07:43:08.256Z,99.99
2022-09-28T07:44:08.192Z,99.99
2022-09-28T07:45:08.228Z,99.99
2022-09-28T07:46:08.267Z,99.99
2022-09-28T07:47:08.239Z,99.99
2022-09-28T07:48:08.166Z,99.99
2022-09-28T07:49:11.440Z,99.99
2022-09-28T07:50:08.154Z,99.99
2022-09-28T07:51:08.154Z,99.99
2022-09-28T07:52:08.104Z,99.99
2022-09-28T07:53:08.119Z,99.99
2022-09-28T07:54:08.106Z,99.99
2022-09-28T07:55:08.128Z,99.99
2022-09-28T07:56:08.122Z,99.99
2022-09-28T07:57:08.102Z,99.99
2022-09-28T07:58:08.042Z,99.99
2022-09-28T07:59:08.144Z,99.99
2022-09-28T08:00:08.025Z,99.99
2022-09-28T08:01:08.072Z,99.99
2022-09-28T08:02:08.101Z,99.99
2022-09-28T08:03:08.015Z,99.99
2022-09-28T08:04:07.992Z,99.99
2022-09-28T08:05:07.968Z,99.99
2022-09-28T08:06:07.965Z,99.99
2022-09-28T08:07:08.006Z,99.99
2022-09-28T08:08:08.367Z,99.99
2022-09-28T08:09:07.999Z,99.99
2022-09-28T08:10:07.919Z,99.99
2022-09-28T08:11:07.910Z,99.99
2022-09-28T08:12:07.893Z,99.99
2022-09-28T08:13:08.840Z,99.99
2022-09-28T08:14:07.901Z,99.99
2022-09-28T08:15:07.906Z,99.99
2022-09-28T08:16:07.854Z,99.99
2022-09-28T08:17:07.886Z,99.99
2022-09-28T08:18:07.870Z,99.99
2022-09-28T08:19:07.841Z,99.99
2022-09-28T08:20:07.832Z,99.99
2022-09-28T08:21:07.792Z,99.99
2022-09-28T08:22:07.783Z,99.99
2022-09-28T08:23:07.798Z,99.99
2022-09-28T08:24:07.852Z,99.99
2022-09-28T08:25:08.137Z,99.99
2022-09-28T08:26:11.015Z,99.99
2022-09-28T08:27:08.752Z,99.99
2022-09-28T08:28:07.718Z,99.99
2022-09-28T08:29:07.756Z,99.99
2022-09-28T08:30:07.714Z,99.99
2022-09-28T08:31:07.814Z,99.99
2022-09-28T08:32:07.698Z,99.99
2022-09-28T08:33:07.699Z,99.99
2022-09-28T08:34:07.714Z,99.99
2022-09-28T08:35:08.097Z,99.99
2022-09-28T08:36:09.181Z,99.99
2022-09-28T08:37:07.629Z,99.99
2022-09-28T08:38:07.635Z,99.99
2022-09-28T08:39:07.600Z,99.99
2022-09-28T08:40:07.642Z,99.99
2022-09-28T08:41:07.633Z,99.99
2022-09-28T08:42:07.572Z,99.99
2022-09-28T08:43:07.776Z,99.99
2022-09-28T08:44:08.349Z,99.99
2022-09-28T08:45:08.591Z,99.99
2022-09-28T08:46:07.551Z,99.99
2022-09-28T08:47:07.548Z,99.99
2022-09-28T08:48:07.516Z,99.99
2022-09-28T08:49:24.182Z,99.99
2022-09-28T08:50:08.509Z,99.99
2022-09-28T08:51:07.520Z,99.99
2022-09-28T08:52:07.581Z,99.99
2022-09-28T08:53:07.496Z,99.99
2022-09-28T08:54:11.023Z,99.99
2022-09-28T08:55:07.421Z,99.99
2022-09-28T08:56:07.453Z,99.99
2022-09-28T08:57:07.425Z,99.99
2022-09-28T08:58:07.402Z,99.99
2022-09-28T08:59:07.645Z,99.99
2022-09-28T09:00:11.012Z,99.99
2022-09-28T09:01:07.508Z,99.99
2022-09-28T09:02:07.516Z,99.99
2022-09-28T09:03:07.547Z,99.99
2022-09-28T09:04:07.342Z,99.99
2022-09-28T09:05:07.316Z,99.99
2022-09-28T09:06:07.330Z,99.99
2022-09-28T09:07:07.335Z,99.99
2022-09-28T09:08:07.309Z,99.99
2022-09-28T09:09:07.326Z,99.99
